Flight Track Log - Related Links

Times and Time Zones

All times are in EDT time to prevent confusion due to time zone crossing. See the N867DS flight status page for this flight to view local times or setup timezone preferences in your user account.

Time Position Orientation Groundspeed Altitude Reporting Facility
EDT Latitude Longitude Course Direction KTS MPH feet Rate Location/Type
Sun 02:51:32 PM 28.5500 -81.3333 147° Southeast 77 89 500  Level Orlando TRACON
Sun 02:52:26 PM 28.5333 -81.3500 221° Southwest 67 77 1,000 556 Climbing Orlando TRACON
Sun 02:53:20 PM 28.5333 -81.3833 270° West 77 89 1,500 650 Climbing Orlando TRACON
Sun 02:54:26 PM 28.5167 -81.4000 221° Southwest 80 92 2,300 656 Climbing Orlando TRACON
Sun 02:56:23 PM 28.4750 -81.3794 157° South 98 113 3,500 570 Climbing Miami Center
Sun 02:57:00 PM 28.3649 -81.2130 147° Southeast  Level Estimated
Sun 02:57:25 PM 28.4794 -81.3514 80° East 95 109 4,000  Level Miami Center
Sun 02:58:27 PM 28.4847 -81.3161 80° East 113 130 3,900  Descending Miami Center
Sun 02:59:27 PM 28.4833 -81.2667 92° East 135 155 4,000 50 Climbing Orlando TRACON
Sun 03:00:28 PM 28.5000 -81.2333 60° Northeast 138 159 4,000  Level Orlando TRACON
Sun 03:02:33 PM 28.4500 -81.1500 124° Southeast 132 152 4,000 134 Level Orlando TRACON
Sun 03:03:27 PM 28.4333 -81.1167 120° Southeast 129 148 4,400 550 Climbing Orlando TRACON
Sun 03:04:33 PM 28.4167 -81.1000 139° Southeast 95 109 5,100 667 Climbing Orlando TRACON
Sun 03:05:33 PM 28.4000 -81.0667 120° Southeast 94 108 5,800 567 Climbing Orlando TRACON
Sun 03:07:33 PM 28.3667 -81.0167 139° Southeast 96 110 6,800 433 Climbing Orlando TRACON
Sun 03:08:47 PM 28.3503 -80.9939 129° Southeast 95 109 7,200 397 Climbing Miami Center
Sun 03:09:49 PM 28.3303 -80.9733 138° Southeast 96 110 7,700 387 Climbing Miami Center
Sun 03:10:51 PM 28.3131 -80.9503 130° Southeast 96 110 8,000 97 Climbing Miami Center
Sun 03:11:53 PM 28.2889 -80.9203 132° Southeast 122 140 7,900 -48 Descending Miami Center
Sun 03:12:55 PM 28.2631 -80.8892 133° Southeast 134 154 7,900  Level Miami Center
Sun 03:13:57 PM 28.2178 -80.8836 174° South 138 159 7,900  Level Miami Center
Sun 03:14:59 PM 28.1975 -80.8433 120° Southeast 144 166 7,900  Level Miami Center
Sun 03:16:01 PM 28.1667 -80.8181 144° Southeast 144 166 7,900 48 Level Miami Center
Sun 03:17:03 PM 28.1325 -80.7997 155° Southeast 136 157 8,000 32 Climbing Miami Center
Sun 03:19:07 PM 28.0497 -80.7908 175° South 138 159 8,000  Level Miami Center
Sun 03:20:09 PM 28.0089 -80.7869 175° South 138 159 8,000  Level Miami Center
Sun 03:21:11 PM 27.9678 -80.7842 177° South 139 160 8,000  Level Miami Center
Sun 03:24:17 PM 27.8464 -80.7744 135° Southeast 143 165 8,000  Level Miami Center
Sun 03:25:19 PM 27.8064 -80.7717 176° South 139 160 8,000  Level Miami Center
Sun 03:26:21 PM 27.7653 -80.7683 176° South 139 160 8,000  Level Miami Center
Sun 03:28:26 PM 27.6856 -80.7619 176° South 138 159 8,000  Level Miami Center
Sun 03:29:28 PM 27.6500 -80.7592 176° South 136 157 8,000  Level Miami Center
Sun 03:30:30 PM 27.6122 -80.7558 176° South 132 152 8,000  Level Miami Center
Sun 03:31:32 PM 27.5722 -80.7528 176° South 134 154 8,000 -48 Level Miami Center
Sun 03:32:34 PM 27.5303 -80.7497 176° South 140 161 7,900 -242 Descending Miami Center
Sun 03:33:36 PM 27.4878 -80.7461 176° South 143 165 7,500 -387 Descending Miami Center
Sun 03:34:38 PM 27.4456 -80.7431 176° South 143 165 7,100 -387 Descending Miami Center
Sun 03:35:40 PM 27.4069 -80.7397 176° South 143 165 6,700 -435 Descending Miami Center
Sun 03:36:42 PM 27.3650 -80.7367 176° South 143 165 6,200 -387 Descending Miami Center
Sun 03:37:44 PM 27.3236 -80.7333 176° South 143 165 5,900 -242 Descending Miami Center
Sun 03:38:46 PM 27.2828 -80.7303 176° South 143 165 5,700 -288 Descending Miami Center
Sun 03:39:49 PM 27.2422 -80.7272 176° South 141 162 5,300 -384 Descending Miami Center
Sun 03:40:51 PM 27.2011 -80.7239 176° South 141 162 4,900 -290 Descending Miami Center
Sun 03:41:53 PM 27.1614 -80.7208 176° South 140 161 4,700 -290 Descending Miami Center
Sun 03:42:55 PM 27.1250 -80.7181 176° South 139 160 4,300 -339 Descending Miami Center
Sun 03:43:57 PM 27.0847 -80.7147 176° South 139 160 4,000 -145 Descending Miami Center
Sun 03:44:59 PM 27.0619 -80.6853 131° Southeast 119 137 4,000 -145 Level Miami Center
Sun 03:46:01 PM 27.0522 -80.6453 105° East 123 142 3,700 -242 Descending Miami Center
Sun 03:47:03 PM 27.0408 -80.6067 108° East 123 142 3,500 -336 Descending Miami Center
Sun 03:48:06 PM 27.0306 -80.5664 106° East 128 147 3,000 -240 Descending Miami Center
Sun 03:49:08 PM 27.0208 -80.5311 107° East 126 145 3,000  Level Miami Center
Sun 03:50:10 PM 27.0086 -80.4881 108° East 126 145 3,000 -194 Level Miami Center
Sun 03:51:12 PM 26.9939 -80.4481 112° Southeast 134 154 2,600 -484 Descending Miami Center
Sun 03:52:14 PM 26.9744 -80.4117 121° Southeast 135 155 2,000 -484 Descending Miami Center
Sun 03:53:16 PM 26.9692 -80.3717 98° East 135 155 1,600 -192 Descending Miami Center
Sun 03:54:19 PM 26.9647 -80.3397 99° East 120 138 1,600  Level Miami Center
Sun 03:55:21 PM 26.9256 -80.3317 170° South 132 152 1,600  Level Miami Center
Sun 03:57:00 PM 26.8894 -80.2866 132° Southeast  Level FlightAware Approximate
Sun 04:04:00 PM 26.8459 -80.2223 125° Southeast  Level Estimated
Sun 04:05:00 PM 26.8459 -80.2223 North  Level Estimated
Sun 04:06:00 PM 26.8459 -80.2223 125° Southeast  Level Estimated
Sun 04:07:00 PM 26.8459 -80.2223 North  Level Estimated
Sun 04:08:00 PM 26.8459 -80.2223 125° Southeast  Level Estimated
Sun 04:09:00 PM 26.8459 -80.2223 North  Level Estimated

Login

Don't have an account? Register now (free) for customized features, flight alerts, and more!